Terminal Aerodrome Forecast
Issued by NWS Louisville, KY

Home | Current Version | Previous Version | Text Only | Print | Product List | Glossary On
Versions: 1 2 3 4 5 6 7 8 9 10 11 12 13 14 15 16
000
FTUS43 KLMK 271500 AAB
TAFBWG
TAF AMD
KBWG 271515Z 2715/2812 34004KT 4SM BR OVC006
     FM271700 35004KT 6SM BR OVC009
     FM271900 01004KT P6SM BKN025
     FM280100 VRB03KT P6SM SCT030=

USA.gov is the U.S. government's official web portal to all federal, state and local government web resources and services.